sensor_id;sensor_type;location;lat;lon;timestamp;pressure;altitude;pressure_sealevel;temperature;humidity
44103;BME280;29769;42.178;24.742;2022-09-03T00:01:50;99363.31;;;18.38;100.00
44103;BME280;29769;42.178;24.742;2022-09-03T00:05:23;99359.09;;;18.34;100.00
44103;BME280;29769;42.178;24.742;2022-09-03T00:13:15;99361.44;;;18.23;100.00
44103;BME280;29769;42.178;24.742;2022-09-03T00:16:02;99365.81;;;18.24;100.00
44103;BME280;29769;42.178;24.742;2022-09-03T00:19:03;99362.13;;;18.27;100.00
44103;BME280;29769;42.178;24.742;2022-09-03T00:21:53;99367.00;;;18.18;100.00
44103;BME280;29769;42.178;24.742;2022-09-03T00:24:40;99368.09;;;18.14;100.00
44103;BME280;29769;42.178;24.742;2022-09-03T00:27:27;99369.81;;;18.15;100.00
44103;BME280;29769;42.178;24.742;2022-09-03T00:30:14;99370.28;;;18.23;100.00
44103;BME280;29769;42.178;24.742;2022-09-03T00:35:46;99355.31;;;18.38;100.00
44103;BME280;29769;42.178;24.742;2022-09-03T00:38:36;99364.69;;;18.45;100.00
44103;BME280;29769;42.178;24.742;2022-09-03T00:44:34;99354.66;;;18.50;100.00
44103;BME280;29769;42.178;24.742;2022-09-03T00:47:23;99356.41;;;18.51;100.00
44103;BME280;29769;42.178;24.742;2022-09-03T00:58:48;99343.88;;;18.36;100.00
44103;BME280;29769;42.178;24.742;2022-09-03T01:01:45;99354.53;;;18.36;100.00
44103;BME280;29769;42.178;24.742;2022-09-03T01:04:47;99343.13;;;18.34;100.00
44103;BME280;29769;42.178;24.742;2022-09-03T01:07:48;99357.28;;;18.35;100.00
44103;BME280;29769;42.178;24.742;2022-09-03T01:10:47;99359.16;;;18.33;100.00
44103;BME280;29769;42.178;24.742;2022-09-03T01:13:40;99361.13;;;18.29;100.00
44103;BME280;29769;42.178;24.742;2022-09-03T01:19:28;99356.56;;;18.31;100.00
44103;BME280;29769;42.178;24.742;2022-09-03T01:28:29;99355.84;;;18.45;100.00
44103;BME280;29769;42.178;24.742;2022-09-03T01:40:08;99355.09;;;18.60;100.00
44103;BME280;29769;42.178;24.742;2022-09-03T01:43:12;99350.53;;;18.62;100.00
44103;BME280;29769;42.178;24.742;2022-09-03T01:51:29;99358.53;;;18.62;100.00
44103;BME280;29769;42.178;24.742;2022-09-03T02:02:59;99344.81;;;18.52;100.00
44103;BME280;29769;42.178;24.742;2022-09-03T02:05:47;99347.63;;;18.49;100.00
44103;BME280;29769;42.178;24.742;2022-09-03T02:08:32;99354.28;;;18.41;100.00
44103;BME280;29769;42.178;24.742;2022-09-03T02:11:17;99358.91;;;18.37;100.00
44103;BME280;29769;42.178;24.742;2022-09-03T02:14:02;99360.03;;;18.33;100.00
44103;BME280;29769;42.178;24.742;2022-09-03T02:16:48;99367.22;;;18.31;100.00
44103;BME280;29769;42.178;24.742;2022-09-03T02:19:33;99368.25;;;18.29;100.00
44103;BME280;29769;42.178;24.742;2022-09-03T02:22:20;99365.66;;;18.27;100.00
44103;BME280;29769;42.178;24.742;2022-09-03T02:25:05;99374.50;;;18.28;100.00
44103;BME280;29769;42.178;24.742;2022-09-03T02:27:50;99373.56;;;18.29;100.00
44103;BME280;29769;42.178;24.742;2022-09-03T02:30:36;99378.03;;;18.28;100.00
44103;BME280;29769;42.178;24.742;2022-09-03T02:33:20;99384.28;;;18.27;100.00
44103;BME280;29769;42.178;24.742;2022-09-03T02:36:06;99379.13;;;18.24;100.00
44103;BME280;29769;42.178;24.742;2022-09-03T02:38:51;99388.13;;;18.21;100.00
44103;BME280;29769;42.178;24.742;2022-09-03T02:41:38;99385.63;;;18.18;100.00
44103;BME280;29769;42.178;24.742;2022-09-03T02:44:23;99389.16;;;18.19;100.00
44103;BME280;29769;42.178;24.742;2022-09-03T02:47:11;99388.34;;;18.17;100.00
44103;BME280;29769;42.178;24.742;2022-09-03T02:49:56;99393.78;;;18.15;100.00
44103;BME280;29769;42.178;24.742;2022-09-03T02:52:41;99392.06;;;18.14;100.00
44103;BME280;29769;42.178;24.742;2022-09-03T02:55:26;99392.91;;;18.15;100.00
44103;BME280;29769;42.178;24.742;2022-09-03T02:58:10;99388.69;;;18.11;100.00
44103;BME280;29769;42.178;24.742;2022-09-03T03:00:56;99393.31;;;18.07;100.00
44103;BME280;29769;42.178;24.742;2022-09-03T03:03:40;99393.56;;;18.03;100.00
44103;BME280;29769;42.178;24.742;2022-09-03T03:06:25;99390.16;;;17.99;100.00
44103;BME280;29769;42.178;24.742;2022-09-03T03:09:10;99385.06;;;17.95;100.00
44103;BME280;29769;42.178;24.742;2022-09-03T03:11:54;99391.34;;;17.94;100.00
44103;BME280;29769;42.178;24.742;2022-09-03T03:14:39;99386.16;;;17.91;100.00
44103;BME280;29769;42.178;24.742;2022-09-03T03:17:24;99382.63;;;17.90;100.00
44103;BME280;29769;42.178;24.742;2022-09-03T03:20:09;99379.13;;;17.90;100.00
44103;BME280;29769;42.178;24.742;2022-09-03T03:22:54;99386.16;;;17.91;100.00
44103;BME280;29769;42.178;24.742;2022-09-03T03:25:39;99380.69;;;17.94;100.00
44103;BME280;29769;42.178;24.742;2022-09-03T03:28:24;99382.28;;;17.98;100.00
44103;BME280;29769;42.178;24.742;2022-09-03T03:31:09;99369.81;;;17.98;100.00
44103;BME280;29769;42.178;24.742;2022-09-03T03:33:55;99381.34;;;17.99;100.00
44103;BME280;29769;42.178;24.742;2022-09-03T03:36:40;99381.47;;;17.96;100.00
44103;BME280;29769;42.178;24.742;2022-09-03T03:39:25;99377.19;;;17.93;100.00
44103;BME280;29769;42.178;24.742;2022-09-03T03:42:09;99380.59;;;17.95;100.00
44103;BME280;29769;42.178;24.742;2022-09-03T03:44:54;99378.91;;;17.94;100.00
44103;BME280;29769;42.178;24.742;2022-09-03T03:47:39;99391.34;;;17.94;100.00
44103;BME280;29769;42.178;24.742;2022-09-03T03:50:24;99394.94;;;17.93;100.00
44103;BME280;29769;42.178;24.742;2022-09-03T03:53:09;99391.34;;;17.94;100.00
44103;BME280;29769;42.178;24.742;2022-09-03T03:55:57;99390.47;;;17.93;100.00
44103;BME280;29769;42.178;24.742;2022-09-03T03:58:43;99385.22;;;17.92;100.00
44103;BME280;29769;42.178;24.742;2022-09-03T04:01:28;99392.28;;;17.93;100.00
44103;BME280;29769;42.178;24.742;2022-09-03T04:04:13;99393.16;;;17.93;100.00
44103;BME280;29769;42.178;24.742;2022-09-03T04:06:58;99390.47;;;17.93;100.00
44103;BME280;29769;42.178;24.742;2022-09-03T04:09:42;99397.53;;;17.94;100.00
44103;BME280;29769;42.178;24.742;2022-09-03T04:12:27;99386.97;;;17.93;100.00
44103;BME280;29769;42.178;24.742;2022-09-03T04:15:12;99400.09;;;17.96;100.00
44103;BME280;29769;42.178;24.742;2022-09-03T04:17:57;99398.31;;;17.96;100.00
44103;BME280;29769;42.178;24.742;2022-09-03T04:20:42;99392.13;;;17.96;100.00
44103;BME280;29769;42.178;24.742;2022-09-03T04:23:27;99404.50;;;17.97;100.00
44103;BME280;29769;42.178;24.742;2022-09-03T04:26:16;99394.78;;;17.96;100.00
44103;BME280;29769;42.178;24.742;2022-09-03T04:29:02;99398.31;;;17.96;100.00
44103;BME280;29769;42.178;24.742;2022-09-03T04:31:47;99390.25;;;17.98;100.00
44103;BME280;29769;42.178;24.742;2022-09-03T04:34:50;99414.09;;;17.99;100.00
44103;BME280;29769;42.178;24.742;2022-09-03T04:37:35;99405.19;;;18.00;100.00
44103;BME280;29769;42.178;24.742;2022-09-03T04:40:19;99411.44;;;17.99;100.00
44103;BME280;29769;42.178;24.742;2022-09-03T04:43:04;99371.63;;;17.81;100.00
44103;BME280;29769;42.178;24.742;2022-09-03T04:45:49;99399.56;;;18.06;100.00
44103;BME280;29769;42.178;24.742;2022-09-03T04:48:35;99412.31;;;18.17;100.00
44103;BME280;29769;42.178;24.742;2022-09-03T04:51:26;99410.91;;;18.27;100.00
44103;BME280;29769;42.178;24.742;2022-09-03T04:54:11;99413.97;;;18.37;100.00
44103;BME280;29769;42.178;24.742;2022-09-03T04:56:56;99427.69;;;18.46;100.00
44103;BME280;29769;42.178;24.742;2022-09-03T04:59:40;99428.38;;;18.50;100.00
44103;BME280;29769;42.178;24.742;2022-09-03T05:02:26;99426.94;;;18.61;100.00
44103;BME280;29769;42.178;24.742;2022-09-03T05:05:11;99434.53;;;18.69;100.00
44103;BME280;29769;42.178;24.742;2022-09-03T05:08:02;99435.31;;;18.71;100.00
44103;BME280;29769;42.178;24.742;2022-09-03T05:10:47;99433.00;;;18.81;100.00
44103;BME280;29769;42.178;24.742;2022-09-03T05:13:33;99437.94;;;18.88;100.00
44103;BME280;29769;42.178;24.742;2022-09-03T05:16:18;99436.16;;;19.04;100.00
44103;BME280;29769;42.178;24.742;2022-09-03T05:19:03;99441.19;;;19.26;100.00
44103;BME280;29769;42.178;24.742;2022-09-03T05:21:49;99451.09;;;19.40;100.00
44103;BME280;29769;42.178;24.742;2022-09-03T05:24:34;99448.44;;;19.57;100.00
44103;BME280;29769;42.178;24.742;2022-09-03T05:27:18;99451.09;;;19.88;100.00
44103;BME280;29769;42.178;24.742;2022-09-03T05:30:03;99446.22;;;20.11;100.00
44103;BME280;29769;42.178;24.742;2022-09-03T05:32:48;99455.50;;;20.19;100.00
44103;BME280;29769;42.178;24.742;2022-09-03T05:35:33;99461.69;;;20.35;100.00
44103;BME280;29769;42.178;24.742;2022-09-03T05:38:18;99464.00;;;20.57;100.00
44103;BME280;29769;42.178;24.742;2022-09-03T05:41:06;99455.09;;;20.57;100.00
44103;BME280;29769;42.178;24.742;2022-09-03T05:43:52;99465.84;;;20.71;100.00
44103;BME280;29769;42.178;24.742;2022-09-03T05:46:39;99470.06;;;21.03;100.00
44103;BME280;29769;42.178;24.742;2022-09-03T05:49:23;99462.63;;;21.08;100.00
44103;BME280;29769;42.178;24.742;2022-09-03T05:52:08;99480.72;;;21.47;100.00
44103;BME280;29769;42.178;24.742;2022-09-03T05:54:53;99463.22;;;21.56;100.00
44103;BME280;29769;42.178;24.742;2022-09-03T05:57:37;99472.69;;;21.61;100.00
44103;BME280;29769;42.178;24.742;2022-09-03T06:00:23;99479.81;;;21.89;100.00
44103;BME280;29769;42.178;24.742;2022-09-03T06:03:08;99460.06;;;22.04;100.00
44103;BME280;29769;42.178;24.742;2022-09-03T06:05:54;99458.91;;;22.08;100.00
44103;BME280;29769;42.178;24.742;2022-09-03T06:08:39;99468.75;;;22.08;100.00
44103;BME280;29769;42.178;24.742;2022-09-03T06:11:25;99470.22;;;22.26;100.00
44103;BME280;29769;42.178;24.742;2022-09-03T06:14:13;99471.66;;;22.44;100.00
44103;BME280;29769;42.178;24.742;2022-09-03T06:16:58;99464.47;;;22.72;100.00
44103;BME280;29769;42.178;24.742;2022-09-03T06:19:43;99469.00;;;22.96;100.00
44103;BME280;29769;42.178;24.742;2022-09-03T06:22:27;99466.81;;;22.76;100.00
44103;BME280;29769;42.178;24.742;2022-09-03T06:25:13;99477.72;;;23.25;100.00
44103;BME280;29769;42.178;24.742;2022-09-03T06:27:58;99472.53;;;23.35;100.00
44103;BME280;29769;42.178;24.742;2022-09-03T06:30:43;99474.69;;;23.30;100.00
44103;BME280;29769;42.178;24.742;2022-09-03T06:33:28;99476.28;;;23.32;100.00
44103;BME280;29769;42.178;24.742;2022-09-03T06:36:15;99483.34;;;23.84;100.00
44103;BME280;29769;42.178;24.742;2022-09-03T06:39:00;99465.13;;;23.51;100.00
44103;BME280;29769;42.178;24.742;2022-09-03T06:41:45;99460.50;;;23.53;100.00
44103;BME280;29769;42.178;24.742;2022-09-03T06:44:42;99481.44;;;23.35;100.00
44103;BME280;29769;42.178;24.742;2022-09-03T06:47:28;99484.47;;;23.18;100.00
44103;BME280;29769;42.178;24.742;2022-09-03T06:50:12;99488.00;;;23.06;100.00
44103;BME280;29769;42.178;24.742;2022-09-03T06:52:57;99481.88;;;23.29;100.00
44103;BME280;29769;42.178;24.742;2022-09-03T06:55:41;99466.47;;;24.18;100.00
44103;BME280;29769;42.178;24.742;2022-09-03T06:58:30;99464.44;;;24.57;100.00
44103;BME280;29769;42.178;24.742;2022-09-03T07:01:16;99440.63;;;25.20;100.00
44103;BME280;29769;42.178;24.742;2022-09-03T07:04:01;99474.72;;;24.98;100.00
44103;BME280;29769;42.178;24.742;2022-09-03T07:06:46;99467.03;;;25.04;100.00
44103;BME280;29769;42.178;24.742;2022-09-03T07:09:31;99474.41;;;25.36;100.00
44103;BME280;29769;42.178;24.742;2022-09-03T07:12:19;99483.72;;;25.54;100.00
44103;BME280;29769;42.178;24.742;2022-09-03T07:15:04;99468.56;;;25.64;100.00
44103;BME280;29769;42.178;24.742;2022-09-03T07:17:49;99478.31;;;25.87;100.00
44103;BME280;29769;42.178;24.742;2022-09-03T07:20:34;99479.63;;;26.15;100.00
44103;BME280;29769;42.178;24.742;2022-09-03T07:23:19;99471.31;;;26.50;100.00
44103;BME280;29769;42.178;24.742;2022-09-03T07:26:08;99471.91;;;26.53;100.00
44103;BME280;29769;42.178;24.742;2022-09-03T07:28:53;99460.22;;;26.32;100.00
44103;BME280;29769;42.178;24.742;2022-09-03T07:31:39;99480.00;;;26.10;100.00
44103;BME280;29769;42.178;24.742;2022-09-03T07:34:25;99489.78;;;26.23;100.00
44103;BME280;29769;42.178;24.742;2022-09-03T07:37:10;99486.59;;;26.18;100.00
44103;BME280;29769;42.178;24.742;2022-09-03T07:39:55;99481.63;;;26.45;98.82
44103;BME280;29769;42.178;24.742;2022-09-03T07:42:39;99490.31;;;26.48;97.99
44103;BME280;29769;42.178;24.742;2022-09-03T07:45:24;99493.53;;;26.42;95.52
44103;BME280;29769;42.178;24.742;2022-09-03T07:48:08;99500.94;;;26.82;93.80
44103;BME280;29769;42.178;24.742;2022-09-03T07:50:56;99494.03;;;26.68;93.98
44103;BME280;29769;42.178;24.742;2022-09-03T07:53:43;99482.13;;;26.71;90.94
44103;BME280;29769;42.178;24.742;2022-09-03T07:56:28;99489.19;;;27.24;88.47
44103;BME280;29769;42.178;24.742;2022-09-03T07:59:15;99502.22;;;27.61;85.85
44103;BME280;29769;42.178;24.742;2022-09-03T08:02:00;99490.06;;;27.25;78.99
44103;BME280;29769;42.178;24.742;2022-09-03T08:04:45;99479.50;;;27.22;78.65
44103;BME280;29769;42.178;24.742;2022-09-03T08:07:30;99465.69;;;27.46;77.40
44103;BME280;29769;42.178;24.742;2022-09-03T08:10:15;99465.94;;;27.63;74.48
44103;BME280;29769;42.178;24.742;2022-09-03T08:12:59;99484.13;;;28.01;73.88
44103;BME280;29769;42.178;24.742;2022-09-03T08:15:54;99483.63;;;28.17;71.69
44103;BME280;29769;42.178;24.742;2022-09-03T08:18:38;99469.81;;;28.10;71.94
44103;BME280;29769;42.178;24.742;2022-09-03T08:21:24;99472.16;;;27.84;71.01
44103;BME280;29769;42.178;24.742;2022-09-03T08:24:10;99477.13;;;27.99;70.69
44103;BME280;29769;42.178;24.742;2022-09-03T08:26:55;99462.91;;;27.87;72.23
44103;BME280;29769;42.178;24.742;2022-09-03T08:29:40;99473.41;;;28.59;68.87
44103;BME280;29769;42.178;24.742;2022-09-03T08:32:25;99471.81;;;28.18;68.27
44103;BME280;29769;42.178;24.742;2022-09-03T08:35:10;99468.88;;;28.88;66.61
44103;BME280;29769;42.178;24.742;2022-09-03T08:37:54;99476.69;;;28.91;66.46
44103;BME280;29769;42.178;24.742;2022-09-03T08:40:39;99480.50;;;29.64;66.29
44103;BME280;29769;42.178;24.742;2022-09-03T08:43:25;99474.53;;;29.60;63.39
44103;BME280;29769;42.178;24.742;2022-09-03T08:46:09;99466.59;;;29.77;62.00
44103;BME280;29769;42.178;24.742;2022-09-03T08:48:55;99478.25;;;29.59;62.11
44103;BME280;29769;42.178;24.742;2022-09-03T08:51:40;99461.84;;;29.61;61.83
44103;BME280;29769;42.178;24.742;2022-09-03T08:54:27;99471.97;;;29.59;62.37
44103;BME280;29769;42.178;24.742;2022-09-03T08:57:12;99456.19;;;30.27;60.54
44103;BME280;29769;42.178;24.742;2022-09-03T08:59:58;99449.72;;;30.55;58.56
44103;BME280;29769;42.178;24.742;2022-09-03T09:23:28;99447.53;;;31.20;53.09
44103;BME280;29769;42.178;24.742;2022-09-03T09:26:15;99455.38;;;31.99;50.63
44103;BME280;29769;42.178;24.742;2022-09-03T09:29:05;99443.75;;;31.72;50.49
44103;BME280;29769;42.178;24.742;2022-09-03T09:31:52;99450.97;;;32.56;49.22
44103;BME280;29769;42.178;24.742;2022-09-03T09:34:37;99446.41;;;32.89;47.53
44103;BME280;29769;42.178;24.742;2022-09-03T09:37:22;99446.19;;;31.92;47.66
44103;BME280;29769;42.178;24.742;2022-09-03T09:40:08;99448.44;;;32.04;48.95
44103;BME280;29769;42.178;24.742;2022-09-03T09:43:02;99435.13;;;32.43;46.66
44103;BME280;29769;42.178;24.742;2022-09-03T09:45:48;99446.97;;;31.76;48.37
44103;BME280;29769;42.178;24.742;2022-09-03T09:48:36;99450.28;;;31.96;47.76
44103;BME280;29769;42.178;24.742;2022-09-03T09:54:13;99450.25;;;32.46;47.16
44103;BME280;29769;42.178;24.742;2022-09-03T09:57:01;99451.81;;;32.81;46.27
44103;BME280;29769;42.178;24.742;2022-09-03T09:59:46;99441.28;;;32.78;46.26
44103;BME280;29769;42.178;24.742;2022-09-03T10:02:32;99444.88;;;32.70;45.80
44103;BME280;29769;42.178;24.742;2022-09-03T10:05:24;99451.47;;;33.00;44.79
44103;BME280;29769;42.178;24.742;2022-09-03T10:08:19;99453.28;;;32.27;47.22
44103;BME280;29769;42.178;24.742;2022-09-03T10:11:04;99448.75;;;32.76;45.14
44103;BME280;29769;42.178;24.742;2022-09-03T10:13:50;99445.22;;;33.63;44.37
44103;BME280;29769;42.178;24.742;2022-09-03T10:16:38;99446.94;;;34.03;43.12
44103;BME280;29769;42.178;24.742;2022-09-03T10:19:47;99439.44;;;34.05;42.78
44103;BME280;29769;42.178;24.742;2022-09-03T10:22:51;99436.16;;;33.78;43.15
44103;BME280;29769;42.178;24.742;2022-09-03T10:28:41;99422.09;;;34.74;41.00
44103;BME280;29769;42.178;24.742;2022-09-03T10:37:22;99424.22;;;34.10;42.28
44103;BME280;29769;42.178;24.742;2022-09-03T10:49:07;99413.81;;;34.36;41.04
44103;BME280;29769;42.178;24.742;2022-09-03T11:00:15;99425.31;;;34.77;38.83
44103;BME280;29769;42.178;24.742;2022-09-03T11:09:18;99415.56;;;36.00;35.81
44103;BME280;29769;42.178;24.742;2022-09-03T11:12:06;99422.69;;;35.51;36.97
44103;BME280;29769;42.178;24.742;2022-09-03T11:14:53;99424.13;;;36.12;35.07
44103;BME280;29769;42.178;24.742;2022-09-03T11:17:45;99430.50;;;35.54;35.61
44103;BME280;29769;42.178;24.742;2022-09-03T11:20:31;99428.22;;;36.37;34.60
44103;BME280;29769;42.178;24.742;2022-09-03T11:23:16;99431.22;;;36.06;34.85
44103;BME280;29769;42.178;24.742;2022-09-03T11:26:05;99416.53;;;35.63;35.13
44103;BME280;29769;42.178;24.742;2022-09-03T11:29:24;99428.94;;;35.74;35.68
44103;BME280;29769;42.178;24.742;2022-09-03T11:32:07;99412.41;;;35.82;35.33
44103;BME280;29769;42.178;24.742;2022-09-03T11:34:55;99417.22;;;34.99;36.70
44103;BME280;29769;42.178;24.742;2022-09-03T11:37:49;99414.47;;;35.21;36.39
44103;BME280;29769;42.178;24.742;2022-09-03T11:40:41;99409.19;;;35.35;35.96
44103;BME280;29769;42.178;24.742;2022-09-03T11:43:40;99405.91;;;34.87;36.74
44103;BME280;29769;42.178;24.742;2022-09-03T11:46:27;99405.25;;;34.62;36.88
44103;BME280;29769;42.178;24.742;2022-09-03T11:49:12;99414.41;;;34.92;37.15
44103;BME280;29769;42.178;24.742;2022-09-03T11:52:08;99410.19;;;34.67;36.71
44103;BME280;29769;42.178;24.742;2022-09-03T11:54:54;99407.41;;;35.71;34.98
44103;BME280;29769;42.178;24.742;2022-09-03T11:57:39;99411.16;;;34.51;36.44
44103;BME280;29769;42.178;24.742;2022-09-03T12:00:26;99401.13;;;34.44;35.97
44103;BME280;29769;42.178;24.742;2022-09-03T12:03:12;99398.53;;;34.50;36.60
44103;BME280;29769;42.178;24.742;2022-09-03T12:20:26;99404.00;;;34.50;34.97
44103;BME280;29769;42.178;24.742;2022-09-03T12:23:12;99390.91;;;35.20;33.73
44103;BME280;29769;42.178;24.742;2022-09-03T12:26:11;99389.84;;;34.47;34.76
44103;BME280;29769;42.178;24.742;2022-09-03T12:28:59;99399.16;;;35.12;34.00
44103;BME280;29769;42.178;24.742;2022-09-03T12:31:44;99384.38;;;35.07;33.78
44103;BME280;29769;42.178;24.742;2022-09-03T12:34:31;99390.22;;;34.21;35.05
44103;BME280;29769;42.178;24.742;2022-09-03T12:37:20;99391.22;;;34.88;34.07
44103;BME280;29769;42.178;24.742;2022-09-03T12:40:15;99392.53;;;34.01;35.56
44103;BME280;29769;42.178;24.742;2022-09-03T12:43:12;99390.63;;;32.02;39.22
44103;BME280;29769;42.178;24.742;2022-09-03T12:45:58;99397.53;;;31.81;40.00
44103;BME280;29769;42.178;24.742;2022-09-03T12:48:50;99395.88;;;32.04;39.73
44103;BME280;29769;42.178;24.742;2022-09-03T12:51:39;99381.97;;;33.04;37.56
44103;BME280;29769;42.178;24.742;2022-09-03T12:54:25;99376.78;;;34.11;36.51
44103;BME280;29769;42.178;24.742;2022-09-03T12:57:10;99385.19;;;33.79;36.59
44103;BME280;29769;42.178;24.742;2022-09-03T12:59:59;99387.47;;;35.04;35.08
44103;BME280;29769;42.178;24.742;2022-09-03T13:02:49;99381.75;;;34.76;34.50
44103;BME280;29769;42.178;24.742;2022-09-03T13:05:42;99363.13;;;34.11;35.03
44103;BME280;29769;42.178;24.742;2022-09-03T13:08:28;99376.69;;;33.11;37.27
44103;BME280;29769;42.178;24.742;2022-09-03T13:11:16;99380.84;;;32.74;37.60
44103;BME280;29769;42.178;24.742;2022-09-03T13:14:04;99360.66;;;31.86;38.83
44103;BME280;29769;42.178;24.742;2022-09-03T13:16:52;99385.22;;;31.26;40.67
44103;BME280;29769;42.178;24.742;2022-09-03T13:19:54;99382.72;;;31.33;40.54
44103;BME280;29769;42.178;24.742;2022-09-03T13:22:53;99387.09;;;31.26;41.07
44103;BME280;29769;42.178;24.742;2022-09-03T13:25:50;99379.31;;;31.73;39.51
44103;BME280;29769;42.178;24.742;2022-09-03T13:28:48;99387.50;;;31.81;39.89
44103;BME280;29769;42.178;24.742;2022-09-03T13:32:01;99369.41;;;32.30;38.21
44103;BME280;29769;42.178;24.742;2022-09-03T13:34:48;99365.34;;;32.42;38.09
44103;BME280;29769;42.178;24.742;2022-09-03T13:37:56;99365.88;;;31.63;40.21
44103;BME280;29769;42.178;24.742;2022-09-03T13:40:41;99376.19;;;31.18;41.57
44103;BME280;29769;42.178;24.742;2022-09-03T13:44:13;99394.44;;;31.08;42.06
44103;BME280;29769;42.178;24.742;2022-09-03T13:49:35;99369.16;;;31.83;41.31
44103;BME280;29769;42.178;24.742;2022-09-03T13:55:34;99374.38;;;31.68;40.47
44103;BME280;29769;42.178;24.742;2022-09-03T13:58:31;99370.44;;;31.63;41.26
44103;BME280;29769;42.178;24.742;2022-09-03T14:04:03;99378.53;;;31.47;42.44
44103;BME280;29769;42.178;24.742;2022-09-03T14:09:58;99372.47;;;32.35;41.71
44103;BME280;29769;42.178;24.742;2022-09-03T14:15:43;99391.16;;;31.30;43.41
44103;BME280;29769;42.178;24.742;2022-09-03T14:21:29;99374.53;;;31.25;42.50
44103;BME280;29769;42.178;24.742;2022-09-03T14:24:22;99387.91;;;31.52;41.05
44103;BME280;29769;42.178;24.742;2022-09-03T14:27:08;99376.22;;;31.26;41.62
44103;BME280;29769;42.178;24.742;2022-09-03T14:29:57;99380.31;;;30.78;42.65
44103;BME280;29769;42.178;24.742;2022-09-03T14:32:50;99395.91;;;30.76;42.30
44103;BME280;29769;42.178;24.742;2022-09-03T14:36:04;99405.47;;;30.27;43.48
44103;BME280;29769;42.178;24.742;2022-09-03T14:39:02;99417.75;;;29.86;46.29
44103;BME280;29769;42.178;24.742;2022-09-03T14:41:58;99410.91;;;29.82;44.36
44103;BME280;29769;42.178;24.742;2022-09-03T15:07:52;99416.75;;;28.28;49.02
44103;BME280;29769;42.178;24.742;2022-09-03T15:10:44;99402.31;;;28.09;49.23
44103;BME280;29769;42.178;24.742;2022-09-03T15:13:32;99416.25;;;28.04;49.95
44103;BME280;29769;42.178;24.742;2022-09-03T15:16:33;99434.53;;;28.41;48.97
44103;BME280;29769;42.178;24.742;2022-09-03T15:36:55;99421.03;;;27.72;49.84
44103;BME280;29769;42.178;24.742;2022-09-03T15:39:41;99439.53;;;27.46;50.61
44103;BME280;29769;42.178;24.742;2022-09-03T15:42:27;99441.34;;;27.36;51.19
44103;BME280;29769;42.178;24.742;2022-09-03T15:45:15;99449.41;;;27.26;51.54
44103;BME280;29769;42.178;24.742;2022-09-03T15:49:05;99450.06;;;27.19;51.87
44103;BME280;29769;42.178;24.742;2022-09-03T15:51:17;99443.81;;;27.18;51.85
44103;BME280;29769;42.178;24.742;2022-09-03T15:54:29;99451.16;;;27.07;52.40
44103;BME280;29769;42.178;24.742;2022-09-03T15:57:19;99454.50;;;26.99;52.82
44103;BME280;29769;42.178;24.742;2022-09-03T16:00:09;99456.63;;;26.95;51.92
44103;BME280;29769;42.178;24.742;2022-09-03T16:05:43;99460.00;;;26.88;53.22
44103;BME280;29769;42.178;24.742;2022-09-03T16:08:43;99449.94;;;26.79;53.47
44103;BME280;29769;42.178;24.742;2022-09-03T16:14:19;99459.72;;;26.59;54.11
44103;BME280;29769;42.178;24.742;2022-09-03T16:17:21;99457.09;;;26.48;54.65
44103;BME280;29769;42.178;24.742;2022-09-03T16:20:27;99463.66;;;26.34;55.23
44103;BME280;29769;42.178;24.742;2022-09-03T16:23:18;99468.81;;;26.26;56.00
44103;BME280;29769;42.178;24.742;2022-09-03T16:26:15;99471.25;;;26.18;56.45
44103;BME280;29769;42.178;24.742;2022-09-03T16:29:07;99470.56;;;26.05;57.39
44103;BME280;29769;42.178;24.742;2022-09-03T16:41:14;99471.88;;;25.56;61.37
44103;BME280;29769;42.178;24.742;2022-09-03T16:44:21;99486.03;;;25.47;62.20
44103;BME280;29769;42.178;24.742;2022-09-03T16:53:04;99509.97;;;25.17;65.11
44103;BME280;29769;42.178;24.742;2022-09-03T16:58:46;99508.50;;;25.13;64.97
44103;BME280;29769;42.178;24.742;2022-09-03T17:04:57;99523.06;;;25.21;65.01
44103;BME280;29769;42.178;24.742;2022-09-03T17:10:35;99536.56;;;25.33;65.54
44103;BME280;29769;42.178;24.742;2022-09-03T17:13:29;99540.13;;;25.44;64.98
44103;BME280;29769;42.178;24.742;2022-09-03T17:22:05;99550.91;;;25.33;66.35
44103;BME280;29769;42.178;24.742;2022-09-03T17:24:51;99561.28;;;25.27;66.89
44103;BME280;29769;42.178;24.742;2022-09-03T17:30:55;99569.25;;;25.28;66.06
44103;BME280;29769;42.178;24.742;2022-09-03T17:33:51;99570.72;;;25.21;66.20
44103;BME280;29769;42.178;24.742;2022-09-03T17:36:41;99575.03;;;25.35;66.02
44103;BME280;29769;42.178;24.742;2022-09-03T17:43:13;99584.94;;;25.45;65.83
44103;BME280;29769;42.178;24.742;2022-09-03T17:45:40;99592.03;;;25.46;66.99
44103;BME280;29769;42.178;24.742;2022-09-03T17:52:34;99601.34;;;25.42;69.37
44103;BME280;29769;42.178;24.742;2022-09-03T17:54:50;99599.88;;;25.38;69.80
44103;BME280;29769;42.178;24.742;2022-09-03T17:57:38;99606.31;;;25.36;70.25
44103;BME280;29769;42.178;24.742;2022-09-03T18:12:26;99635.44;;;24.59;77.53
44103;BME280;29769;42.178;24.742;2022-09-03T18:18:25;99644.03;;;24.28;81.17
44103;BME280;29769;42.178;24.742;2022-09-03T18:21:11;99645.22;;;24.11;83.30
44103;BME280;29769;42.178;24.742;2022-09-03T18:24:20;99658.88;;;24.08;84.51
44103;BME280;29769;42.178;24.742;2022-09-03T18:30:27;99657.28;;;23.93;87.29
44103;BME280;29769;42.178;24.742;2022-09-03T18:33:30;99665.88;;;23.85;87.78
44103;BME280;29769;42.178;24.742;2022-09-03T18:36:34;99665.53;;;23.77;88.96
44103;BME280;29769;42.178;24.742;2022-09-03T18:39:37;99675.00;;;23.70;90.14
44103;BME280;29769;42.178;24.742;2022-09-03T18:46:19;99675.19;;;23.67;92.04